Time;durP1;ratioP1;P1;durP2;ratioP2;P2;SDS_P1;SDS_P2;PMS_P1;PMS_P2;Temp;Humidity;BMP_temperature;BMP_pressure;BME280_temperature;BME280_humidity;BME280_pressure;Samples;Min_cycle;Max_cycle;Signal;HPM_P1;HPM_P2
2023/01/19 00:01:23;;;;;;;14.48;10.48;;;2.60;99.90;;;;;;4998734;28;20065;-53
2023/01/19 00:03:49;;;;;;;11.90;10.77;;;2.50;99.90;;;;;;4980143;28;20046;-52
2023/01/19 00:06:15;;;;;;;12.38;11.10;;;2.50;99.90;;;;;;4996781;28;20092;-51
2023/01/19 00:08:43;;;;;;;11.13;10.10;;;2.60;99.90;;;;;;4998229;28;20041;-51
2023/01/19 00:11:09;;;;;;;11.57;10.45;;;2.50;99.90;;;;;;4995908;28;20046;-51
2023/01/19 00:13:36;;;;;;;11.18;10.07;;;2.50;99.90;;;;;;4996735;28;20046;-51
2023/01/19 00:16:01;;;;;;;10.50;9.60;;;2.50;99.90;;;;;;5000375;28;20049;-53
2023/01/19 00:18:27;;;;;;;10.60;9.70;;;2.50;99.90;;;;;;4999021;28;20042;-54
2023/01/19 00:20:53;;;;;;;9.98;9.07;;;2.50;99.90;;;;;;4997909;28;20046;-54
2023/01/19 00:23:19;;;;;;;8.63;7.82;;;2.50;99.90;;;;;;4994488;28;20046;-51
2023/01/19 00:25:46;;;;;;;8.48;7.65;;;2.50;99.90;;;;;;4998265;28;20046;-55
2023/01/19 00:28:14;;;;;;;7.82;7.07;;;2.50;99.90;;;;;;4998838;28;20042;-51
2023/01/19 00:30:41;;;;;;;7.65;6.95;;;2.50;99.90;;;;;;5000667;28;20053;-53
2023/01/19 00:33:07;;;;;;;7.65;6.95;;;2.40;99.90;;;;;;4996171;28;20054;-50
2023/01/19 00:35:34;;;;;;;7.72;7.03;;;2.40;99.90;;;;;;4998776;28;21925;-51
2023/01/19 00:38:02;;;;;;;7.97;7.18;;;2.40;99.90;;;;;;4996463;28;20092;-52
2023/01/19 00:40:28;;;;;;;8.63;7.82;;;2.40;99.90;;;;;;4996610;28;20069;-50
2023/01/19 00:42:53;;;;;;;9.85;8.95;;;2.40;99.90;;;;;;4996715;28;20119;-51
2023/01/19 00:45:22;;;;;;;9.48;8.68;;;2.30;99.90;;;;;;4995493;28;20472;-50
2023/01/19 00:47:53;;;;;;;9.25;8.43;;;2.30;99.90;;;;;;4998722;28;20056;-51
2023/01/19 00:50:19;;;;;;;10.85;9.88;;;2.30;99.90;;;;;;5000639;28;20049;-51
2023/01/19 00:52:45;;;;;;;11.05;10.07;;;2.30;99.90;;;;;;4998798;28;20110;-50
2023/01/19 00:55:12;;;;;;;12.82;11.73;;;2.20;99.90;;;;;;4999125;28;20532;-49
2023/01/19 00:57:39;;;;;;;13.57;12.27;;;2.20;99.90;;;;;;4996682;28;20045;-51
2023/01/19 01:00:10;;;;;;;14.02;12.73;;;2.10;99.90;;;;;;4995609;28;20050;-51
2023/01/19 01:02:36;;;;;;;14.50;13.05;;;2.10;99.90;;;;;;4995565;28;20529;-51
2023/01/19 01:05:04;;;;;;;14.77;13.48;;;2.10;99.90;;;;;;4996608;28;20041;-51
2023/01/19 01:07:39;;;;;;;14.65;13.35;;;2.10;99.90;;;;;;4994878;28;20341;-50
2023/01/19 01:10:25;;;;;;;15.82;14.43;;;2.00;99.90;;;;;;4995722;28;20088;-50
2023/01/19 01:12:51;;;;;;;16.08;14.48;;;2.00;99.90;;;;;;4995478;28;20456;-52
2023/01/19 01:15:18;;;;;;;16.00;14.60;;;2.00;99.90;;;;;;4994845;28;20064;-50
2023/01/19 01:17:47;;;;;;;15.88;14.38;;;2.00;99.90;;;;;;5000382;28;20556;-51
2023/01/19 01:20:17;;;;;;;17.08;15.45;;;2.00;99.90;;;;;;4996266;28;20692;-49
2023/01/19 01:22:46;;;;;;;16.50;14.80;;;2.00;99.90;;;;;;4997728;28;20038;-49
2023/01/19 01:25:12;;;;;;;;;;;2.00;99.90;;;;;;4998931;28;20069;-50
2023/01/19 01:27:38;;;;;;;16.90;15.30;;;2.00;99.90;;;;;;4997789;28;20103;-51
2023/01/19 01:30:04;;;;;;;18.00;16.33;;;2.00;99.90;;;;;;4996177;28;20539;-50
2023/01/19 01:32:30;;;;;;;18.13;16.33;;;2.00;99.90;;;;;;4994224;28;20377;-52
2023/01/19 01:34:56;;;;;;;17.90;16.20;;;2.00;99.90;;;;;;5000497;28;21824;-49
2023/01/19 01:37:21;;;;;;;18.15;16.25;;;2.00;99.90;;;;;;5004145;28;20040;-49
2023/01/19 01:39:47;;;;;;;16.83;15.23;;;2.00;99.90;;;;;;5000374;28;20549;-50
2023/01/19 01:42:18;;;;;;;17.45;15.73;;;2.00;99.90;;;;;;5012315;28;20038;-50
2023/01/19 01:44:51;;;;;;;17.33;15.55;;;2.00;99.90;;;;;;5010811;28;21350;-50
2023/01/19 01:47:33;;;;;;;17.30;15.60;;;2.00;99.90;;;;;;5001755;28;20041;-51
2023/01/19 01:50:14;;;;;;;18.15;16.23;;;2.00;99.90;;;;;;5004045;28;20046;-50
2023/01/19 01:52:57;;;;;;;16.88;15.27;;;2.00;99.90;;;;;;5008507;28;20160;-52
2023/01/19 01:55:24;;;;;;;17.27;15.57;;;2.00;99.90;;;;;;5008952;28;20042;-50
2023/01/19 01:57:56;;;;;;;17.60;15.82;;;2.00;99.90;;;;;;5008178;28;20077;-50
2023/01/19 02:00:22;;;;;;;17.95;16.15;;;2.10;99.90;;;;;;5006829;28;20407;-50
2023/01/19 02:02:53;;;;;;;17.27;15.57;;;2.10;99.90;;;;;;5008646;28;20046;-50
2023/01/19 02:05:29;;;;;;;16.70;15.10;;;2.10;99.90;;;;;;4998650;28;20061;-50
2023/01/19 02:13:38;;;;;;;18.33;16.02;;;2.10;99.90;;;;;;5005409;28;20045;-52
2023/01/19 02:16:08;;;;;;;17.90;16.20;;;2.10;99.90;;;;;;5004951;28;20057;-50
2023/01/19 02:18:34;;;;;;;18.10;16.30;;;2.10;99.90;;;;;;5004640;28;20049;-52
2023/01/19 02:21:37;;;;;;;18.35;16.55;;;2.10;99.90;;;;;;5004702;28;20137;-49
2023/01/19 02:24:05;;;;;;;18.13;16.30;;;2.20;99.90;;;;;;5004407;28;20120;-50
2023/01/19 02:26:38;;;;;;;18.77;16.90;;;2.20;99.90;;;;;;5003336;28;20053;-52
2023/01/19 02:29:08;;;;;;;19.30;17.30;;;2.20;99.90;;;;;;5005754;28;20429;-53
2023/01/19 02:31:36;;;;;;;20.20;18.10;;;2.20;99.90;;;;;;5003883;28;20130;-50
2023/01/19 02:34:04;;;;;;;21.00;18.88;;;2.20;99.90;;;;;;5003214;28;20111;-49
2023/01/19 02:36:41;;;;;;;20.58;18.58;;;2.30;99.90;;;;;;5000792;28;20061;-50
2023/01/19 02:39:09;;;;;;;22.37;20.13;;;2.20;99.90;;;;;;5004124;28;20048;-50
2023/01/19 02:41:40;;;;;;;24.17;20.45;;;2.20;99.90;;;;;;5001131;28;20343;-50
2023/01/19 02:44:08;;;;;;;21.98;19.27;;;2.20;99.90;;;;;;5000769;28;20388;-50
2023/01/19 02:46:34;;;;;;;22.70;19.58;;;2.20;99.90;;;;;;5003443;28;20068;-50
2023/01/19 02:49:00;;;;;;;24.75;22.08;;;2.30;99.90;;;;;;5003891;28;20358;-50
2023/01/19 02:51:27;;;;;;;22.63;20.25;;;2.30;99.90;;;;;;5002385;28;20053;-52
2023/01/19 02:54:11;;;;;;;24.80;21.20;;;2.30;99.90;;;;;;4997769;28;20546;-50
2023/01/19 02:56:45;;;;;;;23.17;20.25;;;2.30;99.90;;;;;;4999036;28;20335;-50
2023/01/19 02:59:26;;;;;;;22.77;20.38;;;2.30;99.90;;;;;;4998404;28;20687;-52
2023/01/19 03:02:00;;;;;;;23.73;21.10;;;2.30;99.90;;;;;;4997490;28;20057;-51
2023/01/19 03:04:48;;;;;;;23.70;20.27;;;2.30;99.90;;;;;;4998403;28;20408;-51
2023/01/19 03:07:22;;;;;;;22.38;20.02;;;2.30;99.90;;;;;;4997210;28;20187;-51
2023/01/19 03:09:51;;;;;;;21.75;19.58;;;2.30;99.90;;;;;;4996417;28;20053;-50
2023/01/19 03:12:34;;;;;;;22.50;20.20;;;2.30;99.90;;;;;;4999638;28;20041;-54
2023/01/19 03:15:08;;;;;;;23.63;21.13;;;2.30;99.90;;;;;;5000785;28;20524;-50
2023/01/19 03:17:35;;;;;;;22.48;19.33;;;2.30;99.90;;;;;;4997721;28;20034;-51
2023/01/19 03:20:04;;;;;;;22.50;20.10;;;2.30;99.90;;;;;;4996417;28;20082;-51
2023/01/19 03:22:31;;;;;;;22.20;19.20;;;2.30;99.90;;;;;;4998321;28;20289;-50
2023/01/19 03:24:59;;;;;;;20.00;17.98;;;2.30;99.90;;;;;;5007551;28;20038;-50
2023/01/19 03:27:27;;;;;;;21.73;19.30;;;2.40;99.90;;;;;;5003244;28;20125;-50
2023/01/19 03:30:06;;;;;;;21.80;19.50;;;2.40;99.90;;;;;;5002844;28;20061;-50
2023/01/19 03:32:38;;;;;;;22.40;20.08;;;2.40;99.90;;;;;;5000653;28;20042;-50
2023/01/19 03:35:08;;;;;;;22.42;18.90;;;2.40;99.90;;;;;;5000252;28;20515;-51
2023/01/19 03:37:37;;;;;;;21.42;18.75;;;2.30;99.90;;;;;;5008785;28;20050;-51
2023/01/19 03:40:04;;;;;;;20.23;17.67;;;2.40;99.90;;;;;;5012352;28;20054;-50
2023/01/19 03:42:30;;;;;;;20.70;17.98;;;2.40;99.90;;;;;;5011107;28;20046;-50
2023/01/19 03:44:59;;;;;;;18.80;16.95;;;2.40;99.90;;;;;;5003337;28;20061;-53
2023/01/19 03:47:24;;;;;;;17.83;16.02;;;2.30;99.90;;;;;;5005505;28;20115;-52
2023/01/19 03:49:52;;;;;;;19.13;17.17;;;2.30;99.90;;;;;;5010234;28;20426;-55
2023/01/19 03:52:26;;;;;;;18.20;16.38;;;2.30;99.90;;;;;;5006769;28;20061;-55
2023/01/19 03:54:52;;;;;;;17.27;15.57;;;2.30;99.90;;;;;;5002365;28;20527;-50
2023/01/19 03:57:18;;;;;;;16.13;14.48;;;2.30;99.90;;;;;;5001804;28;20206;-53
2023/01/19 03:59:43;;;;;;;16.23;14.63;;;2.30;99.90;;;;;;5002646;28;20042;-52
2023/01/19 04:02:09;;;;;;;15.13;13.65;;;2.30;99.90;;;;;;5000795;28;20068;-50
2023/01/19 04:04:34;;;;;;;14.52;13.13;;;2.30;99.90;;;;;;5002190;28;20042;-50
2023/01/19 04:07:00;;;;;;;15.82;12.82;;;2.30;99.90;;;;;;5002191;28;20492;-55
2023/01/19 04:09:26;;;;;;;14.32;13.00;;;2.30;99.90;;;;;;5007116;28;20099;-54
2023/01/19 04:11:51;;;;;;;13.85;12.45;;;2.30;99.90;;;;;;4999350;28;20038;-50
2023/01/19 04:14:17;;;;;;;13.50;12.10;;;2.30;99.90;;;;;;4995299;28;20458;-52
2023/01/19 04:16:43;;;;;;;13.32;11.93;;;2.30;99.90;;;;;;4997023;28;20038;-51
2023/01/19 04:19:08;;;;;;;12.95;11.30;;;2.30;99.90;;;;;;4999829;28;20552;-52
2023/01/19 04:21:34;;;;;;;12.98;11.68;;;2.20;99.90;;;;;;5001657;28;20041;-52
2023/01/19 04:24:00;;;;;;;13.07;11.18;;;2.20;99.90;;;;;;5000934;28;20079;-53
2023/01/19 04:26:25;;;;;;;12.38;11.18;;;2.20;99.90;;;;;;4998828;28;20050;-52
2023/01/19 04:28:51;;;;;;;12.52;11.32;;;2.20;99.90;;;;;;4997194;28;20044;-51
2023/01/19 04:31:18;;;;;;;12.35;11.10;;;2.10;99.90;;;;;;4999418;28;20057;-51
2023/01/19 04:33:43;;;;;;;11.13;10.07;;;2.10;99.90;;;;;;4999322;28;20069;-51
2023/01/19 04:36:09;;;;;;;11.23;10.13;;;2.10;99.90;;;;;;4997127;28;20084;-50
2023/01/19 04:38:35;;;;;;;11.27;10.18;;;2.10;99.90;;;;;;4996196;28;20046;-50
2023/01/19 04:41:00;;;;;;;11.07;9.98;;;2.00;99.90;;;;;;4997517;28;20487;-51
2023/01/19 04:43:26;;;;;;;11.10;10.00;;;2.00;99.90;;;;;;5001553;28;20512;-51
2023/01/19 04:45:51;;;;;;;13.32;10.65;;;1.90;99.90;;;;;;4995667;28;20056;-50
2023/01/19 04:48:18;;;;;;;11.25;10.13;;;1.90;99.90;;;;;;4995783;28;20452;-51
2023/01/19 04:50:44;;;;;;;12.75;10.70;;;1.90;99.90;;;;;;5000043;28;20424;-51
2023/01/19 04:53:12;;;;;;;12.68;10.95;;;2.00;99.90;;;;;;5000179;28;20046;-51
2023/01/19 04:55:38;;;;;;;11.73;10.52;;;2.00;99.90;;;;;;4999086;28;20350;-50
2023/01/19 04:58:03;;;;;;;16.25;11.70;;;2.00;99.90;;;;;;4997789;28;20037;-50
2023/01/19 05:00:29;;;;;;;13.30;11.30;;;2.00;99.90;;;;;;4997377;28;20038;-52
2023/01/19 05:02:55;;;;;;;16.05;11.18;;;2.00;99.90;;;;;;5000137;28;20042;-50
2023/01/19 05:05:20;;;;;;;13.30;10.90;;;2.00;99.90;;;;;;4999598;28;20046;-51
2023/01/19 05:07:46;;;;;;;17.33;11.50;;;2.00;99.90;;;;;;5002526;28;20037;-53
2023/01/19 05:10:12;;;;;;;13.63;10.63;;;2.10;99.90;;;;;;4997755;28;20066;-53
2023/01/19 05:12:38;;;;;;;15.05;10.50;;;2.10;99.90;;;;;;5004901;28;20037;-53
2023/01/19 05:15:04;;;;;;;12.88;10.13;;;2.20;99.90;;;;;;5000756;28;20044;-53
2023/01/19 05:17:29;;;;;;;13.48;9.82;;;2.20;99.90;;;;;;5000633;28;20045;-50
2023/01/19 05:19:55;;;;;;;13.70;9.82;;;2.20;99.90;;;;;;4997357;28;20042;-52
2023/01/19 05:22:20;;;;;;;15.02;9.60;;;2.30;99.90;;;;;;4998148;28;20535;-51
2023/01/19 05:24:46;;;;;;;13.77;9.98;;;2.30;99.90;;;;;;4995425;28;20086;-53
2023/01/19 05:27:12;;;;;;;15.60;9.77;;;2.40;99.90;;;;;;4995368;28;20358;-51
2023/01/19 05:29:37;;;;;;;14.95;9.38;;;2.40;99.90;;;;;;4996484;28;20096;-52
2023/01/19 05:32:03;;;;;;;14.70;9.18;;;2.40;99.90;;;;;;4995554;28;20049;-53
2023/01/19 05:34:29;;;;;;;15.45;9.63;;;2.50;99.90;;;;;;4997796;28;20045;-51
2023/01/19 05:36:54;;;;;;;14.18;9.57;;;2.50;99.90;;;;;;5001300;28;20042;-53
2023/01/19 05:39:20;;;;;;;13.77;8.88;;;2.50;99.90;;;;;;5005372;28;20048;-52
2023/01/19 05:41:46;;;;;;;13.27;8.15;;;2.50;99.90;;;;;;5012669;28;20113;-51
2023/01/19 05:44:12;;;;;;;15.35;8.60;;;2.50;99.90;;;;;;5005061;28;20046;-51
2023/01/19 05:46:39;;;;;;;18.25;8.70;;;2.60;99.90;;;;;;5004428;28;20065;-50
2023/01/19 05:49:06;;;;;;;16.42;8.30;;;2.60;99.90;;;;;;5008682;28;20050;-50
2023/01/19 05:51:33;;;;;;;12.00;7.13;;;2.70;99.90;;;;;;5006206;28;20080;-50
2023/01/19 05:54:00;;;;;;;15.25;7.25;;;2.70;99.90;;;;;;5005410;28;20124;-50
2023/01/19 05:56:25;;;;;;;9.82;6.43;;;2.80;99.90;;;;;;5004932;28;20034;-53
2023/01/19 05:58:51;;;;;;;13.55;6.53;;;2.80;99.90;;;;;;5004754;28;20038;-51
2023/01/19 06:01:16;;;;;;;15.25;5.18;;;2.80;99.90;;;;;;5002860;28;20188;-51
2023/01/19 06:03:42;;;;;;;11.32;3.63;;;2.80;99.90;;;;;;5006834;28;20493;-50
2023/01/19 06:06:08;;;;;;;8.82;2.47;;;3.00;99.90;;;;;;5005114;28;20104;-51
2023/01/19 06:08:34;;;;;;;10.10;1.65;;;3.00;99.90;;;;;;5005166;28;20034;-54
2023/01/19 06:11:00;;;;;;;5.65;1.30;;;3.10;99.90;;;;;;5006541;28;20037;-51
2023/01/19 06:13:25;;;;;;;5.15;1.02;;;3.20;99.90;;;;;;4995983;28;20411;-50
2023/01/19 06:16:01;;;;;;;9.23;1.35;;;3.20;99.90;;;;;;4998253;28;20097;-50
2023/01/19 06:18:28;;;;;;;6.18;1.27;;;3.20;99.90;;;;;;4992821;28;20096;-54
2023/01/19 06:20:57;;;;;;;3.78;0.93;;;3.20;99.90;;;;;;4995105;28;20140;-51
2023/01/19 06:23:29;;;;;;;4.28;0.90;;;3.20;99.90;;;;;;4995600;28;20046;-54
2023/01/19 06:25:54;;;;;;;4.30;0.93;;;3.20;99.90;;;;;;4996475;28;20050;-51
2023/01/19 06:28:21;;;;;;;10.60;1.45;;;3.30;99.90;;;;;;4998924;28;20041;-51
2023/01/19 06:30:50;;;;;;;4.45;0.90;;;3.30;99.90;;;;;;4998205;28;20042;-50
2023/01/19 06:33:17;;;;;;;4.80;0.82;;;3.30;99.90;;;;;;4997890;28;20042;-54
2023/01/19 06:35:47;;;;;;;7.90;1.00;;;3.20;99.90;;;;;;4997709;28;20100;-51
2023/01/19 06:38:13;;;;;;;4.43;0.95;;;3.20;99.90;;;;;;4999165;28;20394;-51
2023/01/19 06:40:40;;;;;;;4.63;0.90;;;3.10;99.90;;;;;;5001733;28;20046;-54
2023/01/19 06:43:06;;;;;;;4.88;0.80;;;3.10;99.90;;;;;;4998344;28;20068;-51
2023/01/19 06:45:32;;;;;;;4.50;0.80;;;3.10;99.90;;;;;;4998296;28;20058;-51
2023/01/19 06:47:58;;;;;;;5.85;1.10;;;3.00;99.90;;;;;;4996754;28;20467;-50
2023/01/19 06:50:24;;;;;;;6.18;1.02;;;3.00;99.90;;;;;;5000384;28;20226;-51
2023/01/19 06:52:50;;;;;;;4.25;1.13;;;2.90;99.90;;;;;;4998226;28;20046;-51
2023/01/19 06:55:16;;;;;;;4.28;1.00;;;2.90;99.90;;;;;;4999514;28;20034;-53
2023/01/19 06:57:43;;;;;;;7.15;0.95;;;2.80;99.90;;;;;;5000180;28;20042;-50
2023/01/19 07:00:10;;;;;;;4.78;0.82;;;2.80;99.90;;;;;;4997848;28;20088;-53
2023/01/19 07:02:42;;;;;;;4.05;0.77;;;2.70;99.90;;;;;;5003156;28;20127;-50
2023/01/19 07:05:09;;;;;;;6.25;1.10;;;2.60;99.90;;;;;;5001312;28;20136;-52
2023/01/19 07:07:38;;;;;;;5.47;0.93;;;2.60;99.90;;;;;;5003149;28;20081;-54
2023/01/19 07:10:08;;;;;;;3.78;0.95;;;2.60;99.90;;;;;;5005735;28;20050;-51
2023/01/19 07:12:34;;;;;;;6.65;1.05;;;2.50;99.90;;;;;;5005169;28;20085;-52
2023/01/19 07:15:00;;;;;;;9.02;1.20;;;2.50;99.90;;;;;;5004899;28;20041;-50
2023/01/19 07:17:26;;;;;;;6.85;1.27;;;2.50;99.90;;;;;;5006192;28;20050;-51
2023/01/19 07:19:51;;;;;;;9.63;1.52;;;2.60;99.90;;;;;;5003545;28;20054;-53
2023/01/19 07:22:17;;;;;;;7.65;1.23;;;2.60;99.90;;;;;;5006087;28;20050;-50
2023/01/19 07:24:43;;;;;;;6.15;1.48;;;2.60;99.90;;;;;;5002920;28;20504;-53
2023/01/19 07:27:10;;;;;;;14.25;1.73;;;2.60;99.90;;;;;;5005743;28;20578;-50
2023/01/19 07:29:36;;;;;;;12.43;2.10;;;2.60;99.90;;;;;;5006376;28;20037;-50
2023/01/19 07:32:02;;;;;;;16.58;2.35;;;2.60;99.90;;;;;;5000694;28;20350;-50
2023/01/19 07:34:28;;;;;;;14.88;2.25;;;2.60;99.90;;;;;;5003122;28;20064;-53
2023/01/19 07:36:54;;;;;;;13.32;2.13;;;2.70;99.90;;;;;;5003737;28;20045;-52
2023/01/19 07:39:20;;;;;;;8.48;2.22;;;2.70;99.90;;;;;;5008890;28;20068;-50
2023/01/19 07:41:47;;;;;;;10.32;2.13;;;2.70;99.90;;;;;;5011596;28;20057;-52
2023/01/19 07:44:13;;;;;;;10.37;1.60;;;2.80;99.90;;;;;;5006665;28;20541;-52
2023/01/19 07:46:39;;;;;;;10.65;1.67;;;2.70;99.90;;;;;;5002906;28;20041;-51
2023/01/19 07:49:04;;;;;;;10.68;1.70;;;2.70;99.90;;;;;;5008667;28;20129;-54
2023/01/19 07:51:30;;;;;;;14.77;2.38;;;2.70;99.90;;;;;;5011332;28;20042;-50
2023/01/19 07:53:57;;;;;;;12.55;2.05;;;2.70;99.90;;;;;;4992465;28;20046;-50
2023/01/19 07:56:23;;;;;;;15.20;2.38;;;2.80;99.90;;;;;;5005929;28;20058;-51
2023/01/19 07:58:51;;;;;;;20.13;2.45;;;2.80;99.90;;;;;;5010391;28;20099;-51
2023/01/19 08:01:17;;;;;;;10.45;1.70;;;2.80;99.90;;;;;;5001723;28;20048;-50
2023/01/19 08:03:43;;;;;;;16.15;2.42;;;2.80;99.90;;;;;;5009695;28;20042;-52
2023/01/19 08:06:23;;;;;;;12.82;2.47;;;2.80;99.90;;;;;;5009490;28;20391;-52
2023/01/19 08:08:49;;;;;;;10.90;1.95;;;2.70;99.90;;;;;;5012467;28;20050;-51
2023/01/19 08:11:15;;;;;;;16.52;2.08;;;2.60;99.90;;;;;;5009237;28;20567;-52
2023/01/19 08:13:42;;;;;;;12.23;1.80;;;2.60;99.90;;;;;;5015085;28;20038;-50
2023/01/19 08:16:07;;;;;;;12.82;2.08;;;2.60;99.90;;;;;;5012195;28;20050;-50
2023/01/19 08:18:33;;;;;;;20.25;2.30;;;2.70;99.90;;;;;;5017384;28;20049;-54
2023/01/19 08:20:59;;;;;;;19.15;2.22;;;2.60;99.90;;;;;;5003729;28;20141;-51
2023/01/19 08:23:26;;;;;;;16.58;2.35;;;2.70;99.90;;;;;;5004430;28;20389;-51
2023/01/19 08:25:52;;;;;;;15.75;2.55;;;2.70;99.90;;;;;;5008223;28;20053;-50
2023/01/19 08:28:19;;;;;;;14.35;2.50;;;2.70;99.90;;;;;;5014180;28;20433;-54
2023/01/19 08:30:44;;;;;;;11.20;1.90;;;2.70;99.90;;;;;;5011490;28;20042;-54
2023/01/19 08:33:11;;;;;;;13.55;2.03;;;2.70;99.90;;;;;;5009956;28;20056;-50
2023/01/19 08:35:40;;;;;;;14.10;1.90;;;2.80;99.90;;;;;;5005263;28;20045;-53
2023/01/19 08:38:07;;;;;;;11.32;1.88;;;2.80;99.90;;;;;;5006077;28;20061;-50
2023/01/19 08:40:35;;;;;;;16.20;2.45;;;2.90;99.90;;;;;;5008139;28;20096;-52
2023/01/19 08:43:08;;;;;;;11.32;1.92;;;3.00;99.90;;;;;;5007945;28;20034;-54
2023/01/19 08:45:35;;;;;;;17.15;2.67;;;3.10;99.90;;;;;;5005069;28;20077;-50
2023/01/19 08:48:01;;;;;;;12.50;1.90;;;3.20;99.90;;;;;;5006894;28;20042;-53
2023/01/19 08:50:28;;;;;;;9.88;1.73;;;3.20;99.90;;;;;;5000607;28;20766;-49
2023/01/19 08:53:02;;;;;;;15.20;2.43;;;3.30;99.90;;;;;;5009836;28;20046;-51
2023/01/19 08:55:28;;;;;;;16.17;2.15;;;3.30;99.90;;;;;;5005164;28;20033;-53
2023/01/19 08:57:56;;;;;;;12.70;1.88;;;3.40;99.90;;;;;;5006742;28;20042;-54
2023/01/19 09:00:23;;;;;;;13.05;1.98;;;3.40;99.90;;;;;;5003933;28;20045;-51
2023/01/19 09:02:50;;;;;;;10.80;2.53;;;3.60;99.90;;;;;;5004737;28;20088;-51
2023/01/19 09:05:16;;;;;;;16.27;2.05;;;3.50;99.90;;;;;;5007037;28;20041;-51
2023/01/19 09:07:44;;;;;;;10.20;1.80;;;3.60;99.90;;;;;;5007090;28;20054;-54
2023/01/19 09:10:10;;;;;;;;;;;3.60;99.90;;;;;;5009528;28;20041;-50
2023/01/19 09:12:35;;;;;;;20.95;2.38;;;3.60;99.90;;;;;;5004000;28;19921;-50
2023/01/19 09:15:01;;;;;;;14.30;2.15;;;3.70;99.90;;;;;;5008403;28;20061;-50
2023/01/19 09:17:26;;;;;;;23.95;3.20;;;3.70;99.90;;;;;;5006673;28;20129;-50
2023/01/19 09:19:52;;;;;;;13.80;2.00;;;3.70;99.90;;;;;;5003610;28;20400;-51
2023/01/19 09:22:18;;;;;;;15.38;3.03;;;3.80;99.90;;;;;;5005624;28;20125;-50
2023/01/19 09:24:43;;;;;;;11.88;1.90;;;3.80;99.90;;;;;;5004870;28;20084;-51
2023/01/19 09:27:09;;;;;;;17.27;2.88;;;3.70;99.90;;;;;;5003966;28;20061;-50
2023/01/19 09:29:35;;;;;;;18.00;2.22;;;3.80;99.90;;;;;;5005501;28;20397;-50
2023/01/19 09:32:01;;;;;;;16.95;2.67;;;3.80;99.90;;;;;;5008976;28;20088;-50
2023/01/19 09:34:27;;;;;;;22.17;2.90;;;3.80;99.90;;;;;;5005707;28;20403;-50
2023/01/19 09:36:52;;;;;;;14.02;2.38;;;3.70;99.90;;;;;;4998800;28;20046;-51
2023/01/19 09:39:18;;;;;;;12.63;2.60;;;3.70;99.90;;;;;;5005840;28;20104;-50
2023/01/19 09:41:50;;;;;;;17.63;3.28;;;3.70;99.90;;;;;;5009306;28;20057;-52
2023/01/19 09:44:31;;;;;;;16.92;2.40;;;3.70;99.90;;;;;;5003502;28;20096;-50
2023/01/19 09:46:56;;;;;;;15.90;2.88;;;3.60;99.90;;;;;;5007711;28;20089;-51
2023/01/19 09:49:32;;;;;;;18.10;2.28;;;3.60;99.90;;;;;;4989452;28;20074;-54
2023/01/19 09:51:58;;;;;;;13.38;2.70;;;3.60;99.90;;;;;;5001388;28;20188;-51
2023/01/19 09:54:45;;;;;;;13.77;2.50;;;3.50;99.90;;;;;;5004770;28;20097;-52
2023/01/19 09:57:12;;;;;;;15.93;2.33;;;3.50;99.90;;;;;;5012139;28;20046;-52
2023/01/19 09:59:38;;;;;;;12.30;2.03;;;3.60;99.90;;;;;;5011376;28;20049;-53
2023/01/19 10:02:37;;;;;;;18.77;3.25;;;3.60;99.90;;;;;;5010257;28;20081;-50
2023/01/19 10:05:29;;;;;;;15.88;2.22;;;3.70;99.90;;;;;;5002878;28;20131;-50
2023/01/19 10:08:13;;;;;;;18.27;2.97;;;3.70;99.90;;;;;;5010693;28;20050;-52
2023/01/19 10:10:41;;;;;;;16.85;2.67;;;3.70;99.90;;;;;;4998512;28;20038;-54
2023/01/19 10:13:19;;;;;;;12.70;3.03;;;3.70;99.90;;;;;;5013639;28;20147;-54
2023/01/19 10:15:55;;;;;;;15.18;2.22;;;3.60;99.90;;;;;;5009883;28;20405;-51
2023/01/19 10:18:44;;;;;;;14.82;3.03;;;3.60;99.90;;;;;;5013923;28;20046;-51
2023/01/19 10:21:21;;;;;;;14.95;2.38;;;3.70;99.90;;;;;;5014747;28;20510;-50
2023/01/19 10:23:57;;;;;;;12.85;2.55;;;3.80;99.90;;;;;;5011008;28;20060;-55
2023/01/19 10:26:26;;;;;;;15.55;2.45;;;3.90;99.90;;;;;;5008791;28;20041;-53
2023/01/19 10:28:56;;;;;;;16.45;2.78;;;4.10;99.90;;;;;;5008825;28;20381;-57
2023/01/19 10:31:23;;;;;;;11.98;2.40;;;4.10;99.90;;;;;;5025017;28;20037;-54
2023/01/19 10:33:50;;;;;;;16.63;2.33;;;4.30;99.90;;;;;;5007180;28;20042;-57
2023/01/19 10:36:37;;;;;;;13.07;1.90;;;4.40;99.90;;;;;;5013256;28;20042;-53
2023/01/19 10:39:06;;;;;;;11.18;1.95;;;4.50;99.90;;;;;;4998807;28;20042;-55
2023/01/19 10:41:42;;;;;;;13.15;2.85;;;4.60;99.90;;;;;;5010298;28;20038;-54
2023/01/19 10:44:09;;;;;;;12.10;2.10;;;4.60;99.90;;;;;;5009496;28;20038;-55
2023/01/19 10:46:42;;;;;;;12.18;2.20;;;4.70;99.90;;;;;;5009091;28;20386;-53
2023/01/19 10:49:28;;;;;;;13.27;2.03;;;4.80;99.90;;;;;;5009974;28;20045;-52
2023/01/19 10:51:57;;;;;;;14.73;3.08;;;4.90;99.90;;;;;;5009940;28;20057;-52
2023/01/19 10:54:25;;;;;;;13.27;2.28;;;4.90;99.90;;;;;;5008140;28;20399;-52
2023/01/19 10:56:57;;;;;;;13.57;3.00;;;5.00;99.90;;;;;;5009101;28;20052;-53
2023/01/19 10:59:32;;;;;;;15.50;2.42;;;5.00;99.90;;;;;;5006836;28;20038;-57
2023/01/19 11:02:21;;;;;;;11.80;2.17;;;5.10;99.90;;;;;;5010499;28;20033;-55
2023/01/19 11:04:50;;;;;;;14.23;2.45;;;5.10;99.90;;;;;;5008133;28;20479;-56
2023/01/19 11:07:33;;;;;;;13.48;2.22;;;5.10;99.90;;;;;;5010941;28;20036;-54
2023/01/19 11:10:14;;;;;;;14.25;2.00;;;5.20;99.90;;;;;;5004316;28;20045;-57
2023/01/19 11:12:54;;;;;;;15.55;2.28;;;5.20;99.90;;;;;;5007006;28;20174;-57
2023/01/19 11:15:28;;;;;;;11.50;2.30;;;5.20;99.90;;;;;;5008460;28;20532;-52
2023/01/19 11:17:54;;;;;;;12.50;2.22;;;5.30;99.90;;;;;;5010703;28;20045;-56
2023/01/19 11:20:27;;;;;;;10.52;2.55;;;5.30;99.90;;;;;;5005636;28;20037;-55
2023/01/19 11:23:15;;;;;;;11.70;1.92;;;5.40;99.90;;;;;;5010953;28;20508;-57
2023/01/19 11:25:46;;;;;;;13.68;2.40;;;5.40;99.90;;;;;;5006938;28;20092;-55
2023/01/19 11:28:26;;;;;;;21.52;2.65;;;5.50;99.90;;;;;;5007219;28;20125;-53
2023/01/19 11:31:10;;;;;;;14.15;2.53;;;5.40;99.90;;;;;;5009511;28;20046;-52
2023/01/19 11:33:41;;;;;;;14.18;1.85;;;5.50;99.90;;;;;;5008184;28;20042;-52
2023/01/19 11:36:18;;;;;;;7.75;1.70;;;5.60;99.90;;;;;;5003225;28;20361;-54
2023/01/19 11:38:52;;;;;;;12.65;2.05;;;5.60;99.90;;;;;;5007156;28;20093;-52
2023/01/19 11:41:21;;;;;;;9.88;1.80;;;5.60;99.90;;;;;;5011245;28;20046;-54
2023/01/19 11:43:56;;;;;;;10.38;1.55;;;5.70;99.90;;;;;;5007773;28;20048;-56
2023/01/19 11:46:25;;;;;;;13.13;1.80;;;5.70;99.90;;;;;;5017705;28;20485;-55
2023/01/19 11:49:04;;;;;;;9.35;1.70;;;5.80;99.90;;;;;;5012166;28;20096;-54
2023/01/19 17:06:34;;;;;;;6.40;2.08;;;2.00;99.90;;;;;;2161706;22;20068;-79
2023/01/19 17:08:59;;;;;;;8.85;1.88;;;2.00;99.90;;;;;;4986477;28;20045;-79
2023/01/19 17:11:27;;;;;;;8.32;2.30;;;2.00;99.90;;;;;;4988741;28;20128;-78
2023/01/19 17:13:58;;;;;;;6.15;1.90;;;1.90;99.90;;;;;;5005042;28;20056;-77
2023/01/19 17:16:25;;;;;;;6.95;2.10;;;1.80;99.90;;;;;;5007076;28;20338;-78
2023/01/19 17:18:51;;;;;;;7.38;1.75;;;1.80;99.90;;;;;;5002998;28;20393;-77
2023/01/19 17:21:18;;;;;;;7.72;1.90;;;1.70;99.90;;;;;;5007693;28;20096;-77
2023/01/19 17:23:48;;;;;;;6.93;1.95;;;1.70;99.90;;;;;;5007772;28;20045;-77
2023/01/19 17:26:15;;;;;;;7.38;2.10;;;1.60;99.90;;;;;;5004352;28;20117;-77
2023/01/19 17:28:41;;;;;;;6.18;1.80;;;1.50;99.90;;;;;;5006880;28;20038;-76
2023/01/19 17:31:09;;;;;;;7.95;1.83;;;1.50;99.90;;;;;;4991316;28;20471;-76
2023/01/19 17:33:36;;;;;;;6.78;2.00;;;1.50;99.90;;;;;;5010592;28;20133;-77
2023/01/19 17:36:11;;;;;;;7.22;1.83;;;1.40;99.90;;;;;;5004177;28;20536;-77
2023/01/19 17:38:37;;;;;;;7.28;1.90;;;1.40;99.90;;;;;;5009002;28;20441;-78
2023/01/19 17:41:21;;;;;;;4.90;1.77;;;1.40;99.90;;;;;;5006759;28;20034;-77
2023/01/19 17:43:49;;;;;;;9.50;2.15;;;1.40;99.90;;;;;;5011356;28;20046;-77
2023/01/19 17:46:15;;;;;;;8.75;1.92;;;1.30;99.90;;;;;;5000725;28;20050;-77
2023/01/19 17:48:40;;;;;;;6.65;2.38;;;1.30;99.90;;;;;;5005947;28;20132;-77
2023/01/19 17:51:09;;;;;;;8.63;2.17;;;1.40;99.90;;;;;;5002762;28;20136;-77
2023/01/19 17:53:39;;;;;;;9.02;2.75;;;1.30;99.90;;;;;;4981433;28;20100;-77
2023/01/19 17:56:13;;;;;;;8.32;2.00;;;1.30;99.90;;;;;;5002672;28;20073;-76
2023/01/19 17:58:39;;;;;;;4.70;2.08;;;1.30;99.90;;;;;;5000971;28;21298;-76
2023/01/19 18:01:12;;;;;;;6.13;1.90;;;1.30;99.90;;;;;;4998815;28;20047;-76
2023/01/19 18:03:37;;;;;;;7.75;1.92;;;1.40;99.90;;;;;;4992144;28;22214;-76
2023/01/19 18:06:04;;;;;;;5.38;1.88;;;1.30;99.90;;;;;;5006313;28;20046;-76
2023/01/19 18:08:29;;;;;;;8.27;2.63;;;1.30;99.90;;;;;;5013099;28;20045;-76
2023/01/19 18:10:57;;;;;;;9.05;2.30;;;1.20;99.90;;;;;;4999896;28;20122;-76
2023/01/19 18:13:23;;;;;;;8.15;2.08;;;1.20;99.90;;;;;;5009192;28;20101;-76
2023/01/19 18:15:49;;;;;;;6.00;2.70;;;1.20;99.90;;;;;;5011947;28;20052;-76